Barbara Foss — WYL4318 — position and weather

sailwx.info

Track history (hours):
 
Tides and Currents Weather Stations Pressure Air Temp Water Temp Dewpoint Dewpoint Depression Visibility Wind Speed Wind Dir Waves Ship Positions

Barbara Foss

Owner: Foss International, Inc, SEATTLE, WA. More information available from US FCC via Universal Licensing System and Coast Guard Vessel Documentation Center.

Last reported at 2015-Jun-30 06:00 UTC. Time now 2015-Jul-29 02:36 UTC.
Position N 55°18' W 150°24'.
Warning: this ship's position is 28 days out of date.

Length 39 m; draft 5.5 m.

Type: Tow > 200 m length. MMSI: 366932130.

Wind from 160 at 10 knots

Barometer 1015.0 mb
Air temperature 10.6 ° C

Date/timePositionNaut miles runAvg speedWind from/ knotsBaromVisibWave heightAir tempDewpointWater temp
2015-Jun-30 06:00N 55°18' W 150°24'   160 / 101015.0 10.6
2015-Jun-26 02:30N 51°11' W 127°51'9 9.4
2015-Jun-26 01:33N 51°04' W 127°41'9 9.1
2015-Jun-26 00:33N 50°58' W 127°31'10 9.5
2015-Jun-25 23:33N 50°52' W 127°18'10 9.7
2015-Jun-25 22:30N 50°47' W 127°05'71 8.9
2015-Jun-25 14:33N 50°16' W 125°24'1310.1
2015-Jun-25 13:17N 50°04' W 125°15'7 9.7
2015-Jun-25 12:30N 49°58' W 125°09'6 6.2
2015-Jun-25 11:33N 49°54' W 125°03'6 5.6
2015-Jun-25 10:33N 49°50' W 124°56'6 6.0
2015-Jun-25 09:34N 49°46' W 124°49'7 6.8
2015-Jun-25 08:33N 49°42' W 124°41'7 6.7
2015-Jun-25 07:33N 49°38' W 124°32'7 6.8
2015-Jun-25 06:34N 49°35' W 124°23'7 6.9
2015-Jun-25 05:34N 49°31' W 124°14'6 6.4
2015-Jun-25 04:33N 49°28' W 124°06'8 8.3
2015-Jun-25 03:33N 49°23' W 123°56'1010.0
2015-Jun-25 02:33N 49°17' W 123°44'10 9.9
2015-Jun-25 01:33N 49°10' W 123°32'10 9.9
2015-Jun-25 00:33N 49°04' W 123°20'10 9.7
2015-Jun-24 23:33N 48°58' W 123°09'10 9.3
2015-Jun-24 22:29N 48°51' W 122°58'9 9.1
2015-Jun-24 21:28N 48°46' W 122°46'8 9.3
2015-Jun-24 20:33N 48°39' W 122°39'7 6.7
2015-Jun-24 19:33N 48°44' W 122°32'0 0.4
2015-Jun-24 18:32N 48°44' W 122°33'0 0.2
2015-Jun-24 17:28N 48°44' W 122°33'0 0.3
2015-Jun-24 16:32N 48°44' W 122°33'2 0.2
2015-Jun-24 04:31N 48°45' W 122°30'0 0.0
2015-Jun-24 03:33N 48°45' W 122°30'0 0.0
2015-Jun-24 02:33N 48°45' W 122°30'0 0.0
2015-Jun-24 01:33N 48°45' W 122°30'0 0.0
2015-Jun-24 00:32N 48°45' W 122°30'0 0.0
2015-Jun-23 23:31N 48°45' W 122°30'67 2.4
2015-Jun-22 19:29N 47°38' W 122°23'0 0.0
2015-Jun-22 18:32N 47°38' W 122°23'0 0.0
2015-Jun-22 17:32N 47°38' W 122°23'0 0.0
2015-Jun-22 16:29N 47°38' W 122°23'0 0.0
2015-Jun-22 15:32N 47°38' W 122°23'0 0.0
2015-Jun-22 14:29N 47°38' W 122°23'0 0.0
2015-Jun-22 13:33N 47°38' W 122°23'0 0.0
2015-Jun-22 12:33N 47°38' W 122°23'0 0.0
2015-Jun-22 11:33N 47°38' W 122°23'0 0.0
2015-Jun-22 10:33N 47°38' W 122°23'0 0.0
2015-Jun-22 09:33N 47°38' W 122°23'0 0.0
2015-Jun-22 08:33N 47°38' W 122°23'0 0.0
2015-Jun-22 07:33N 47°38' W 122°23'0 0.0
2015-Jun-22 06:33N 47°38' W 122°23'0 0.0
2015-Jun-22 05:33N 47°38' W 122°23'0 0.0
2015-Jun-22 04:33N 47°38' W 122°23'0 0.0
2015-Jun-22 03:33N 47°38' W 122°23'0 0.0
2015-Jun-22 02:33N 47°38' W 122°23'0 0.0
2015-Jun-22 01:33N 47°38' W 122°23'0 0.0
2015-Jun-22 00:33N 47°38' W 122°23'0 0.0
2015-Jun-21 23:33N 47°38' W 122°23'0 0.0
2015-Jun-21 22:33N 47°38' W 122°23'0 0.0
2015-Jun-21 21:33N 47°38' W 122°23'0 0.0
2015-Jun-21 20:33N 47°38' W 122°23'0 0.0
2015-Jun-21 20:09N 47°38' W 122°23'0 0.0
2015-Jun-21 19:33N 47°38' W 122°23'0 0.0
2015-Jun-21 19:29N 47°38' W 122°23'0 0.0
2015-Jun-21 18:33N 47°38' W 122°23'0 0.0
2015-Jun-21 18:33N 47°38' W 122°23'0 0.0
2015-Jun-21 17:33N 47°38' W 122°23'0 0.0
2015-Jun-21 17:32N 47°38' W 122°23'0 0.0
2015-Jun-21 16:33N 47°38' W 122°23'0 0.0
2015-Jun-21 16:32N 47°38' W 122°23'0 0.0
2015-Jun-21 15:33N 47°38' W 122°23'0 0.0
2015-Jun-21 15:32N 47°38' W 122°23'0 0.0
2015-Jun-21 14:33N 47°38' W 122°23'0 0.0
2015-Jun-21 14:30N 47°38' W 122°23'0 0.0
2015-Jun-21 13:33N 47°38' W 122°23'0 0.0
2015-Jun-21 13:30N 47°38' W 122°23'0 0.0
2015-Jun-21 12:33N 47°38' W 122°23'0 0.0
2015-Jun-21 12:30N 47°38' W 122°23'0 0.0
2015-Jun-21 11:33N 47°38' W 122°23'0 0.0
2015-Jun-21 11:23N 47°38' W 122°23'0 0.0
2015-Jun-21 10:33N 47°38' W 122°23'0 0.0
2015-Jun-21 10:31N 47°38' W 122°23'0 0.0
2015-Jun-21 09:33N 47°38' W 122°23'0 0.0
2015-Jun-21 09:30N 47°38' W 122°23'0 0.0
2015-Jun-21 08:33N 47°38' W 122°23'0 0.0
2015-Jun-21 08:30N 47°38' W 122°23'0 0.0
2015-Jun-21 07:33N 47°38' W 122°23'0 0.0
2015-Jun-21 07:13N 47°38' W 122°23'0 0.0
2015-Jun-21 06:33N 47°38' W 122°23'0 0.0
2015-Jun-21 06:33N 47°38' W 122°23'0 0.0
2015-Jun-21 06:03N 47°38' W 122°23'0 0.0
2015-Jun-21 05:33N 47°38' W 122°23'0 0.0
2015-Jun-21 04:33N 47°38' W 122°23'0 0.0
2015-Jun-21 04:01N 47°38' W 122°23'0 0.0
2015-Jun-21 03:33N 47°38' W 122°23'0 0.0
2015-Jun-21 03:30N 47°38' W 122°23'0 0.0
2015-Jun-21 02:33N 47°38' W 122°23'0 0.0
2015-Jun-21 02:29N 47°38' W 122°23'0 0.0
2015-Jun-21 01:33N 47°38' W 122°23'0 2.3
2015-Jun-21 01:27N 47°38' W 122°23'3 2.0
2015-Jun-21 00:07N 47°35' W 122°21'0 0.0
2015-Jun-21 00:01N 47°35' W 122°21'0 0.0
2015-Jun-20 23:31N 47°35' W 122°21'0 0.0
2015-Jun-20 22:31N 47°35' W 122°21'0 0.0
2015-Jun-20 22:10N 47°35' W 122°21'0 0.0
2015-Jun-20 21:28N 47°35' W 122°21'0 0.7
2015-Jun-20 21:14N 47°35' W 122°21'3 3.9
2015-Jun-20 20:33N 47°38' W 122°23'0 0.0
2015-Jun-20 19:30N 47°38' W 122°23'0 0.0
2015-Jun-20 18:33N 47°38' W 122°23'0 0.0
2015-Jun-20 17:33N 47°38' W 122°23'0 0.0
2015-Jun-20 17:31N 47°38' W 122°23'7 6.8
2015-Jun-20 16:33N 47°44' W 122°28'011.1
2015-Jun-20 16:31N 47°44' W 122°27'1111.8
2015-Jun-20 15:33N 47°55' W 122°31'511.6
2015-Jun-20 15:10N 47°58' W 122°36'2111.2
2015-Jun-20 13:16N 48°11' W 123°00'912.2
2015-Jun-20 12:33N 48°12' W 123°13'012.6
2015-Jun-20 12:33N 48°12' W 123°14'1212.4
2015-Jun-20 11:33N 48°12' W 123°32'411.8
2015-Jun-20 11:12N 48°12' W 123°38'2011.8
2015-Jun-20 09:32N 48°16' W 124°08'1111.7
2015-Jun-20 08:33N 48°21' W 124°23'1111.1
2015-Jun-20 07:33N 48°25' W 124°38'1010.3
2015-Jun-20 06:33N 48°28' W 124°53'  
Track history (hours):
 
Tides and Currents Weather Stations Pressure Air Temp Water Temp Dewpoint Dewpoint Depression Visibility Wind Speed Wind Dir Waves Ship Positions

Barbara Foss

Owner: Foss International, Inc, SEATTLE, WA. More information available from US FCC via Universal Licensing System and Coast Guard Vessel Documentation Center.

Last reported at 2015-Jun-30 06:00 UTC. Time now 2015-Jul-29 02:36 UTC.
Position N 55°18' W 150°24'.
Warning: this ship's position is 28 days out of date.

Length 39 m; draft 5.5 m.

Type: Tow > 200 m length. MMSI: 366932130.

Wind from 160 at 10 knots

Barometer 1015.0 mb
Air temperature 10.6 ° C

Date/timePositionNaut miles runAvg speedWind from/ knotsBaromVisibWave heightAir tempDewpointWater temp
2015-Jun-30 06:00N 55°18' W 150°24'   160 / 101015.0 10.6
2015-Jun-26 02:30N 51°11' W 127°51'9 9.4
2015-Jun-26 01:33N 51°04' W 127°41'9 9.1
2015-Jun-26 00:33N 50°58' W 127°31'10 9.5
2015-Jun-25 23:33N 50°52' W 127°18'10 9.7
2015-Jun-25 22:30N 50°47' W 127°05'71 8.9
2015-Jun-25 14:33N 50°16' W 125°24'1310.1
2015-Jun-25 13:17N 50°04' W 125°15'7 9.7
2015-Jun-25 12:30N 49°58' W 125°09'6 6.2
2015-Jun-25 11:33N 49°54' W 125°03'6 5.6
2015-Jun-25 10:33N 49°50' W 124°56'6 6.0
2015-Jun-25 09:34N 49°46' W 124°49'7 6.8
2015-Jun-25 08:33N 49°42' W 124°41'7 6.7
2015-Jun-25 07:33N 49°38' W 124°32'7 6.8
2015-Jun-25 06:34N 49°35' W 124°23'7 6.9
2015-Jun-25 05:34N 49°31' W 124°14'6 6.4
2015-Jun-25 04:33N 49°28' W 124°06'8 8.3
2015-Jun-25 03:33N 49°23' W 123°56'1010.0
2015-Jun-25 02:33N 49°17' W 123°44'10 9.9
2015-Jun-25 01:33N 49°10' W 123°32'10 9.9
2015-Jun-25 00:33N 49°04' W 123°20'10 9.7
2015-Jun-24 23:33N 48°58' W 123°09'10 9.3
2015-Jun-24 22:29N 48°51' W 122°58'9 9.1
2015-Jun-24 21:28N 48°46' W 122°46'8 9.3
2015-Jun-24 20:33N 48°39' W 122°39'7 6.7
2015-Jun-24 19:33N 48°44' W 122°32'0 0.4
2015-Jun-24 18:32N 48°44' W 122°33'0 0.2
2015-Jun-24 17:28N 48°44' W 122°33'0 0.3
2015-Jun-24 16:32N 48°44' W 122°33'2 0.2
2015-Jun-24 04:31N 48°45' W 122°30'0 0.0
2015-Jun-24 03:33N 48°45' W 122°30'0 0.0
2015-Jun-24 02:33N 48°45' W 122°30'0 0.0
2015-Jun-24 01:33N 48°45' W 122°30'0 0.0
2015-Jun-24 00:32N 48°45' W 122°30'0 0.0
2015-Jun-23 23:31N 48°45' W 122°30'67 2.4
2015-Jun-22 19:29N 47°38' W 122°23'0 0.0
2015-Jun-22 18:32N 47°38' W 122°23'0 0.0
2015-Jun-22 17:32N 47°38' W 122°23'0 0.0
2015-Jun-22 16:29N 47°38' W 122°23'0 0.0
2015-Jun-22 15:32N 47°38' W 122°23'0 0.0
2015-Jun-22 14:29N 47°38' W 122°23'0 0.0
2015-Jun-22 13:33N 47°38' W 122°23'0 0.0
2015-Jun-22 12:33N 47°38' W 122°23'0 0.0
2015-Jun-22 11:33N 47°38' W 122°23'0 0.0
2015-Jun-22 10:33N 47°38' W 122°23'0 0.0
2015-Jun-22 09:33N 47°38' W 122°23'0 0.0
2015-Jun-22 08:33N 47°38' W 122°23'0 0.0
2015-Jun-22 07:33N 47°38' W 122°23'0 0.0
2015-Jun-22 06:33N 47°38' W 122°23'0 0.0
2015-Jun-22 05:33N 47°38' W 122°23'0 0.0
2015-Jun-22 04:33N 47°38' W 122°23'0 0.0
2015-Jun-22 03:33N 47°38' W 122°23'0 0.0
2015-Jun-22 02:33N 47°38' W 122°23'0 0.0
2015-Jun-22 01:33N 47°38' W 122°23'0 0.0
2015-Jun-22 00:33N 47°38' W 122°23'0 0.0
2015-Jun-21 23:33N 47°38' W 122°23'0 0.0
2015-Jun-21 22:33N 47°38' W 122°23'0 0.0
2015-Jun-21 21:33N 47°38' W 122°23'0 0.0
2015-Jun-21 20:33N 47°38' W 122°23'0 0.0
2015-Jun-21 20:09N 47°38' W 122°23'0 0.0
2015-Jun-21 19:33N 47°38' W 122°23'0 0.0
2015-Jun-21 19:29N 47°38' W 122°23'0 0.0
2015-Jun-21 18:33N 47°38' W 122°23'0 0.0
2015-Jun-21 18:33N 47°38' W 122°23'0 0.0
2015-Jun-21 17:33N 47°38' W 122°23'0 0.0
2015-Jun-21 17:32N 47°38' W 122°23'0 0.0
2015-Jun-21 16:33N 47°38' W 122°23'0 0.0
2015-Jun-21 16:32N 47°38' W 122°23'0 0.0
2015-Jun-21 15:33N 47°38' W 122°23'0 0.0
2015-Jun-21 15:32N 47°38' W 122°23'0 0.0
2015-Jun-21 14:33N 47°38' W 122°23'0 0.0
2015-Jun-21 14:30N 47°38' W 122°23'0 0.0
2015-Jun-21 13:33N 47°38' W 122°23'0 0.0
2015-Jun-21 13:30N 47°38' W 122°23'0 0.0
2015-Jun-21 12:33N 47°38' W 122°23'0 0.0
2015-Jun-21 12:30N 47°38' W 122°23'0 0.0
2015-Jun-21 11:33N 47°38' W 122°23'0 0.0
2015-Jun-21 11:23N 47°38' W 122°23'0 0.0
2015-Jun-21 10:33N 47°38' W 122°23'0 0.0
2015-Jun-21 10:31N 47°38' W 122°23'0 0.0
2015-Jun-21 09:33N 47°38' W 122°23'0 0.0
2015-Jun-21 09:30N 47°38' W 122°23'0 0.0
2015-Jun-21 08:33N 47°38' W 122°23'0 0.0
2015-Jun-21 08:30N 47°38' W 122°23'0 0.0
2015-Jun-21 07:33N 47°38' W 122°23'0 0.0
2015-Jun-21 07:13N 47°38' W 122°23'0 0.0
2015-Jun-21 06:33N 47°38' W 122°23'0 0.0
2015-Jun-21 06:33N 47°38' W 122°23'0 0.0
2015-Jun-21 06:03N 47°38' W 122°23'0 0.0
2015-Jun-21 05:33N 47°38' W 122°23'0 0.0
2015-Jun-21 04:33N 47°38' W 122°23'0 0.0
2015-Jun-21 04:01N 47°38' W 122°23'0 0.0
2015-Jun-21 03:33N 47°38' W 122°23'0 0.0
2015-Jun-21 03:30N 47°38' W 122°23'0 0.0
2015-Jun-21 02:33N 47°38' W 122°23'0 0.0
2015-Jun-21 02:29N 47°38' W 122°23'0 0.0
2015-Jun-21 01:33N 47°38' W 122°23'0 2.3
2015-Jun-21 01:27N 47°38' W 122°23'3 2.0
2015-Jun-21 00:07N 47°35' W 122°21'0 0.0
2015-Jun-21 00:01N 47°35' W 122°21'0 0.0
2015-Jun-20 23:31N 47°35' W 122°21'0 0.0
2015-Jun-20 22:31N 47°35' W 122°21'0 0.0
2015-Jun-20 22:10N 47°35' W 122°21'0 0.0
2015-Jun-20 21:28N 47°35' W 122°21'0 0.7
2015-Jun-20 21:14N 47°35' W 122°21'3 3.9
2015-Jun-20 20:33N 47°38' W 122°23'0 0.0
2015-Jun-20 19:30N 47°38' W 122°23'0 0.0
2015-Jun-20 18:33N 47°38' W 122°23'0 0.0
2015-Jun-20 17:33N 47°38' W 122°23'0 0.0
2015-Jun-20 17:31N 47°38' W 122°23'7 6.8
2015-Jun-20 16:33N 47°44' W 122°28'011.1
2015-Jun-20 16:31N 47°44' W 122°27'1111.8
2015-Jun-20 15:33N 47°55' W 122°31'511.6
2015-Jun-20 15:10N 47°58' W 122°36'2111.2
2015-Jun-20 13:16N 48°11' W 123°00'912.2
2015-Jun-20 12:33N 48°12' W 123°13'012.6
2015-Jun-20 12:33N 48°12' W 123°14'1212.4
2015-Jun-20 11:33N 48°12' W 123°32'411.8
2015-Jun-20 11:12N 48°12' W 123°38'2011.8
2015-Jun-20 09:32N 48°16' W 124°08'1111.7
2015-Jun-20 08:33N 48°21' W 124°23'1111.1
2015-Jun-20 07:33N 48°25' W 124°38'1010.3
2015-Jun-20 06:33N 48°28' W 124°53'  

Dump ship's entire track history